createdAt,value
2019-01-06T00:00:27.291Z,21.50
2019-01-06T00:00:58.447Z,21.85
2019-01-06T00:01:29.609Z,22.58
2019-01-06T00:02:00.763Z,22.17
2019-01-06T00:02:31.930Z,21.93
2019-01-06T00:03:03.087Z,26.00
2019-01-06T00:03:34.249Z,24.95
2019-01-06T00:04:05.402Z,26.50
2019-01-06T00:04:36.552Z,26.70
2019-01-06T00:05:07.752Z,27.98
2019-01-06T00:05:38.902Z,26.40
2019-01-06T00:06:10.049Z,24.40
2019-01-06T00:06:41.208Z,25.20
2019-01-06T00:07:12.344Z,23.90
2019-01-06T00:07:43.487Z,25.60
2019-01-06T00:08:15.954Z,26.23
2019-01-06T00:08:47.163Z,25.60
2019-01-06T00:09:18.335Z,28.47
2019-01-06T00:09:49.495Z,24.95
2019-01-06T00:10:20.636Z,26.02
2019-01-06T00:10:51.800Z,27.48
2019-01-06T00:11:22.946Z,24.82
2019-01-06T00:11:54.135Z,25.32
2019-01-06T00:12:25.309Z,26.70
2019-01-06T00:12:56.501Z,25.15
2019-01-06T00:13:27.656Z,24.45
2019-01-06T00:13:58.810Z,26.17
2019-01-06T00:14:29.971Z,29.77
2019-01-06T00:15:01.124Z,26.30
2019-01-06T00:15:32.282Z,28.85
2019-01-06T00:16:03.477Z,26.35
2019-01-06T00:16:34.628Z,23.50
2019-01-06T00:17:05.779Z,23.22
2019-01-06T00:17:36.943Z,27.10
2019-01-06T00:18:08.100Z,24.60
2019-01-06T00:18:39.253Z,23.80
2019-01-06T00:19:10.400Z,24.63
2019-01-06T00:19:41.551Z,24.00
2019-01-06T00:20:12.702Z,24.40
2019-01-06T00:20:43.849Z,23.73
2019-01-06T00:21:15.049Z,24.80
2019-01-06T00:21:46.201Z,24.45
2019-01-06T00:22:17.355Z,23.18
2019-01-06T00:22:48.513Z,23.92
2019-01-06T00:23:19.720Z,24.23
2019-01-06T00:23:50.894Z,23.40
2019-01-06T00:24:23.244Z,25.27
2019-01-06T00:24:54.371Z,22.65
2019-01-06T00:25:25.522Z,24.20
2019-01-06T00:25:56.672Z,24.20
2019-01-06T00:26:27.827Z,23.52
2019-01-06T00:26:58.980Z,21.97
2019-01-06T00:27:30.130Z,26.60
2019-01-06T00:28:01.276Z,24.12
2019-01-06T00:28:32.483Z,26.02
2019-01-06T00:29:03.634Z,24.23
2019-01-06T00:29:34.824Z,26.70
2019-01-06T00:30:05.964Z,24.25
2019-01-06T00:30:37.123Z,23.45
2019-01-06T00:31:08.260Z,24.25
2019-01-06T00:31:39.414Z,26.12
2019-01-06T00:32:10.647Z,25.25
2019-01-06T00:32:41.803Z,23.67
2019-01-06T00:33:12.954Z,25.85
2019-01-06T00:33:44.145Z,23.85
2019-01-06T00:34:15.296Z,20.85
2019-01-06T00:34:46.448Z,25.15
2019-01-06T00:35:17.605Z,21.87
2019-01-06T00:35:48.754Z,21.00
2019-01-06T00:36:19.913Z,20.75
2019-01-06T00:36:51.143Z,25.45
2019-01-06T00:37:22.274Z,25.90
2019-01-06T00:37:53.459Z,24.43
2019-01-06T00:38:24.616Z,23.32
2019-01-06T00:38:55.769Z,25.50
2019-01-06T00:39:26.975Z,23.20
2019-01-06T00:39:58.132Z,24.18
2019-01-06T00:40:29.286Z,24.10
2019-01-06T00:41:00.438Z,22.95
2019-01-06T00:41:32.958Z,25.90
2019-01-06T00:42:06.767Z,23.15
2019-01-06T00:42:37.956Z,27.05
2019-01-06T00:43:09.159Z,24.35
2019-01-06T00:43:40.361Z,25.52
2019-01-06T00:44:11.532Z,25.27
2019-01-06T00:44:42.680Z,25.08
2019-01-06T00:45:13.880Z,22.87
2019-01-06T00:45:45.025Z,24.80
2019-01-06T00:46:16.181Z,23.42
2019-01-06T00:46:47.333Z,23.60
2019-01-06T00:47:18.489Z,24.57
2019-01-06T00:47:49.643Z,25.68
2019-01-06T00:48:20.795Z,26.48
2019-01-06T00:48:51.945Z,23.05
2019-01-06T00:49:23.112Z,25.10
2019-01-06T00:49:54.266Z,24.23
2019-01-06T00:50:25.461Z,24.70
2019-01-06T00:50:56.616Z,23.25
2019-01-06T00:51:27.771Z,25.50
2019-01-06T00:51:58.980Z,25.92
2019-01-06T00:52:30.140Z,26.10
2019-01-06T00:53:01.297Z,27.60
2019-01-06T00:53:32.460Z,26.87
2019-01-06T00:54:03.626Z,27.10
2019-01-06T00:54:34.787Z,25.57
2019-01-06T00:55:05.942Z,26.40
2019-01-06T00:55:37.149Z,23.20
2019-01-06T00:56:08.361Z,24.63
2019-01-06T00:56:39.509Z,26.05
2019-01-06T00:57:10.661Z,23.77
2019-01-06T00:57:41.806Z,25.82
2019-01-06T00:58:12.977Z,25.12
2019-01-06T00:58:44.129Z,23.45
2019-01-06T00:59:15.286Z,25.20
2019-01-06T00:59:51.177Z,25.37
2019-01-06T01:00:27.489Z,24.40
2019-01-06T01:01:00.744Z,28.20
2019-01-06T01:01:33.916Z,23.00
2019-01-06T01:02:06.245Z,23.65
2019-01-06T01:02:38.586Z,25.62
2019-01-06T01:03:09.843Z,24.98
2019-01-06T01:03:41.046Z,24.35
2019-01-06T01:04:12.263Z,25.17
2019-01-06T01:04:43.408Z,22.40
2019-01-06T01:05:14.577Z,24.30
2019-01-06T01:05:45.719Z,25.60
2019-01-06T01:06:16.879Z,22.85
2019-01-06T01:06:48.086Z,25.27
2019-01-06T01:07:19.246Z,24.72
2019-01-06T01:07:50.401Z,23.87
2019-01-06T01:08:21.581Z,23.60
2019-01-06T01:08:52.753Z,25.75
2019-01-06T01:09:23.910Z,24.67
2019-01-06T01:09:55.068Z,24.25
2019-01-06T01:10:26.221Z,23.83
2019-01-06T01:10:57.390Z,24.27
2019-01-06T01:11:28.615Z,23.70
2019-01-06T01:11:59.820Z,24.12
2019-01-06T01:12:30.969Z,26.07
2019-01-06T01:13:02.111Z,25.92
2019-01-06T01:13:33.264Z,25.50
2019-01-06T01:14:04.434Z,23.32
2019-01-06T01:14:35.591Z,26.12
2019-01-06T01:15:06.744Z,26.62
2019-01-06T01:15:37.900Z,26.12
2019-01-06T01:16:09.057Z,22.32
2019-01-06T01:16:40.214Z,24.57
2019-01-06T01:17:11.495Z,26.25
2019-01-06T01:17:42.703Z,22.52
2019-01-06T01:18:13.862Z,25.32
2019-01-06T01:18:45.013Z,23.27
2019-01-06T01:19:16.179Z,26.05
2019-01-06T01:19:47.331Z,24.00
2019-01-06T01:20:18.487Z,23.80
2019-01-06T01:20:49.632Z,27.02
2019-01-06T01:21:20.776Z,22.70
2019-01-06T01:21:51.961Z,24.52
2019-01-06T01:22:23.117Z,22.35
2019-01-06T01:22:54.316Z,23.22
2019-01-06T01:23:25.518Z,23.10
2019-01-06T01:23:56.666Z,23.42
2019-01-06T01:24:27.817Z,23.87
2019-01-06T01:24:58.977Z,23.65
2019-01-06T01:25:30.121Z,22.87
2019-01-06T01:26:01.275Z,24.40
2019-01-06T01:26:32.429Z,24.37
2019-01-06T01:27:03.581Z,24.57
2019-01-06T01:27:34.788Z,24.63
2019-01-06T01:28:05.942Z,22.87
2019-01-06T01:28:37.091Z,22.15
2019-01-06T01:29:11.943Z,22.82
2019-01-06T01:29:44.883Z,21.82
2019-01-06T01:30:16.191Z,23.42
2019-01-06T01:30:47.751Z,22.02
2019-01-06T01:31:20.620Z,21.60
2019-01-06T01:31:51.751Z,22.82
2019-01-06T01:32:24.075Z,19.90
2019-01-06T01:32:58.872Z,20.90
2019-01-06T01:33:32.621Z,19.17
2019-01-06T01:34:04.651Z,21.90
2019-01-06T01:34:38.322Z,22.00
2019-01-06T01:35:11.754Z,20.77
2019-01-06T01:35:43.367Z,23.98
2019-01-06T01:36:14.549Z,19.50
2019-01-06T01:36:47.003Z,19.77
2019-01-06T01:37:18.178Z,22.00
2019-01-06T01:37:49.330Z,19.45
2019-01-06T01:38:20.508Z,20.80
2019-01-06T01:38:51.665Z,16.97
2019-01-06T01:39:22.913Z,19.23
2019-01-06T01:39:54.106Z,21.07
2019-01-06T01:40:25.219Z,23.05
2019-01-06T01:40:56.373Z,20.68
2019-01-06T01:41:27.573Z,20.05
2019-01-06T01:41:58.734Z,20.52
2019-01-06T01:42:29.900Z,21.45
2019-01-06T01:43:01.069Z,22.02
2019-01-06T01:43:32.222Z,22.00
2019-01-06T01:44:03.381Z,21.25
2019-01-06T01:44:34.531Z,19.27
2019-01-06T01:45:05.727Z,20.00
2019-01-06T01:45:36.884Z,21.48
2019-01-06T01:46:08.077Z,22.15
2019-01-06T01:46:39.241Z,22.90
2019-01-06T01:47:10.388Z,15.68
2019-01-06T01:47:41.550Z,18.10
2019-01-06T01:48:12.708Z,23.65
2019-01-06T01:48:43.856Z,21.77
2019-01-06T01:49:15.011Z,19.32
2019-01-06T01:49:46.174Z,21.45
2019-01-06T01:50:17.332Z,19.85
2019-01-06T01:50:48.564Z,19.82
2019-01-06T01:51:19.747Z,20.50
2019-01-06T01:51:50.905Z,19.85
2019-01-06T01:52:22.053Z,19.07
2019-01-06T01:52:53.267Z,18.30
2019-01-06T01:53:24.418Z,16.62
2019-01-06T01:53:55.611Z,15.75
2019-01-06T01:54:26.756Z,16.55
2019-01-06T01:54:57.917Z,15.55
2019-01-06T01:55:29.070Z,14.25
2019-01-06T01:56:00.227Z,18.27
2019-01-06T01:56:31.378Z,16.00
2019-01-06T01:57:02.532Z,15.30
2019-01-06T01:57:33.693Z,16.75
2019-01-06T01:58:04.852Z,17.62
2019-01-06T01:58:36.083Z,18.07
2019-01-06T01:59:07.279Z,16.50
2019-01-06T01:59:38.436Z,20.15
2019-01-06T02:00:09.586Z,16.25
2019-01-06T02:00:40.736Z,17.73
2019-01-06T02:01:11.944Z,15.28
2019-01-06T02:01:43.099Z,17.23
2019-01-06T02:02:14.265Z,16.12
2019-01-06T02:02:45.436Z,16.00
2019-01-06T02:03:16.594Z,16.40
2019-01-06T02:03:47.752Z,18.45
2019-01-06T02:04:18.930Z,16.48
2019-01-06T02:04:50.058Z,15.58
2019-01-06T02:05:21.243Z,16.85
2019-01-06T02:05:52.395Z,16.27
2019-01-06T02:06:23.591Z,15.85
2019-01-06T02:06:54.748Z,14.90
2019-01-06T02:07:25.923Z,17.32
2019-01-06T02:07:57.121Z,17.95
2019-01-06T02:08:28.285Z,17.90
2019-01-06T02:08:59.443Z,17.30
2019-01-06T02:09:30.613Z,18.65
2019-01-06T02:10:01.807Z,16.40
2019-01-06T02:10:33.017Z,19.62
2019-01-06T02:11:04.245Z,16.93
2019-01-06T02:11:35.404Z,15.93
2019-01-06T02:12:06.554Z,15.50
2019-01-06T02:12:37.725Z,17.57
2019-01-06T02:13:08.877Z,15.28
2019-01-06T02:13:40.047Z,18.00
2019-01-06T02:14:11.208Z,19.90
2019-01-06T02:14:42.369Z,18.60
2019-01-06T02:15:13.613Z,15.78
2019-01-06T02:15:44.772Z,16.82
2019-01-06T02:16:15.962Z,17.82
2019-01-06T02:16:47.131Z,15.43
2019-01-06T02:17:18.288Z,16.30
2019-01-06T02:17:49.486Z,18.02
2019-01-06T02:18:20.733Z,15.55
2019-01-06T02:18:51.905Z,17.02
2019-01-06T02:19:23.064Z,16.70
2019-01-06T02:19:54.225Z,15.80
2019-01-06T02:20:25.375Z,15.58
2019-01-06T02:20:56.562Z,17.32
2019-01-06T02:21:27.712Z,14.78
2019-01-06T02:21:58.874Z,17.32
2019-01-06T02:22:30.023Z,16.12
2019-01-06T02:23:01.235Z,15.80
2019-01-06T02:23:32.389Z,16.35
2019-01-06T02:24:03.602Z,17.20
2019-01-06T02:24:34.774Z,16.67
2019-01-06T02:25:05.943Z,17.10
2019-01-06T02:25:37.107Z,17.15
2019-01-06T02:26:08.271Z,17.00
2019-01-06T02:26:39.430Z,16.62
2019-01-06T02:27:10.603Z,16.87
2019-01-06T02:27:41.756Z,13.83
2019-01-06T02:28:12.921Z,14.50
2019-01-06T02:28:44.177Z,16.45
2019-01-06T02:29:15.337Z,14.43
2019-01-06T02:29:46.489Z,14.45
2019-01-06T02:30:17.654Z,14.68
2019-01-06T02:30:48.802Z,15.03
2019-01-06T02:31:19.958Z,15.40
2019-01-06T02:31:51.112Z,11.95
2019-01-06T02:32:22.323Z,13.62
2019-01-06T02:32:53.476Z,13.45
2019-01-06T02:33:24.636Z,13.32
2019-01-06T02:33:55.832Z,11.60
2019-01-06T02:34:26.986Z,12.28
2019-01-06T02:34:58.147Z,13.68
2019-01-06T02:35:29.305Z,13.28
2019-01-06T02:36:00.465Z,14.30
2019-01-06T02:36:31.636Z,14.13
2019-01-06T02:37:02.851Z,12.30
2019-01-06T02:37:34.011Z,13.18
2019-01-06T02:38:05.176Z,11.83
2019-01-06T02:38:36.317Z,13.18
2019-01-06T02:39:07.494Z,12.73
2019-01-06T02:39:38.646Z,15.50
2019-01-06T02:40:09.808Z,11.40
2019-01-06T02:40:40.965Z,12.65
2019-01-06T02:41:12.118Z,12.70
2019-01-06T02:41:43.316Z,11.97
2019-01-06T02:42:14.461Z,12.58
2019-01-06T02:42:45.615Z,11.80
2019-01-06T02:43:16.774Z,13.25
2019-01-06T02:43:47.936Z,11.80
2019-01-06T02:44:19.110Z,12.50
2019-01-06T02:44:50.260Z,12.90
2019-01-06T02:45:21.414Z,12.90
2019-01-06T02:45:52.562Z,12.98
2019-01-06T02:46:23.715Z,13.62
2019-01-06T02:46:54.878Z,11.83
2019-01-06T02:47:26.026Z,12.30
2019-01-06T02:47:57.173Z,11.97
2019-01-06T02:48:28.341Z,11.53
2019-01-06T02:48:59.502Z,11.93
2019-01-06T02:49:30.666Z,12.93
2019-01-06T02:50:01.818Z,12.63
2019-01-06T02:50:33.013Z,11.95
2019-01-06T02:51:04.184Z,12.65
2019-01-06T02:51:35.333Z,12.63
2019-01-06T02:52:06.542Z,12.33
2019-01-06T02:52:37.697Z,12.95
2019-01-06T02:53:08.867Z,12.55
2019-01-06T02:53:40.027Z,12.68
2019-01-06T02:54:11.193Z,11.60
2019-01-06T02:54:42.342Z,12.30
2019-01-06T02:55:13.540Z,12.05
2019-01-06T02:55:44.711Z,12.55
2019-01-06T02:56:18.698Z,12.55
2019-01-06T02:56:49.849Z,13.00
2019-01-06T02:57:21.038Z,13.28
2019-01-06T02:57:52.241Z,12.05
2019-01-06T02:58:23.397Z,11.75
2019-01-06T02:58:54.571Z,11.80
2019-01-06T02:59:27.468Z,12.50
2019-01-06T02:59:58.623Z,12.80
2019-01-06T03:00:29.781Z,12.33
2019-01-06T03:01:00.989Z,12.75
2019-01-06T03:01:32.171Z,11.55
2019-01-06T03:02:03.327Z,10.72
2019-01-06T03:02:34.481Z,11.10
2019-01-06T03:03:05.686Z,12.73
2019-01-06T03:03:36.870Z,12.55
2019-01-06T03:04:08.087Z,12.98
2019-01-06T03:04:39.264Z,11.95
2019-01-06T03:05:10.417Z,11.85
2019-01-06T03:05:41.573Z,11.53
2019-01-06T03:06:12.725Z,11.48
2019-01-06T03:06:43.891Z,12.28
2019-01-06T03:07:15.047Z,11.83
2019-01-06T03:07:46.194Z,11.18
2019-01-06T03:08:17.426Z,11.18
2019-01-06T03:08:48.627Z,9.58
2019-01-06T03:09:19.764Z,12.43
2019-01-06T03:09:50.912Z,11.73
2019-01-06T03:10:22.055Z,10.10
2019-01-06T03:10:53.210Z,12.37
2019-01-06T03:11:24.363Z,12.98
2019-01-06T03:11:55.578Z,11.88
2019-01-06T03:12:26.680Z,12.95
2019-01-06T03:12:57.894Z,12.63
2019-01-06T03:13:29.060Z,11.83
2019-01-06T03:14:00.218Z,12.10
2019-01-06T03:14:31.372Z,12.18
2019-01-06T03:15:02.546Z,13.43
2019-01-06T03:15:33.679Z,13.90
2019-01-06T03:16:04.837Z,14.40
2019-01-06T03:16:35.996Z,13.22
2019-01-06T03:17:07.179Z,14.78
2019-01-06T03:17:38.347Z,15.28
2019-01-06T03:18:09.490Z,13.08
2019-01-06T03:18:40.648Z,13.55
2019-01-06T03:19:11.821Z,17.57
2019-01-06T03:19:42.985Z,13.95
2019-01-06T03:20:14.186Z,15.55
2019-01-06T03:20:45.336Z,15.85
2019-01-06T03:21:16.510Z,14.40
2019-01-06T03:21:47.720Z,15.75
2019-01-06T03:22:18.875Z,13.70
2019-01-06T03:22:50.036Z,15.58
2019-01-06T03:23:21.184Z,17.20
2019-01-06T03:23:52.323Z,18.17
2019-01-06T03:24:23.494Z,16.95
2019-01-06T03:24:54.684Z,17.00
2019-01-06T03:25:25.860Z,16.73
2019-01-06T03:25:57.021Z,16.90
2019-01-06T03:26:28.178Z,17.48
2019-01-06T03:26:59.392Z,18.07
2019-01-06T03:27:30.556Z,17.60
2019-01-06T03:28:01.716Z,16.87
2019-01-06T03:28:32.886Z,17.48
2019-01-06T03:29:04.049Z,13.95
2019-01-06T03:29:35.209Z,18.05
2019-01-06T03:30:06.446Z,17.42
2019-01-06T03:30:37.556Z,15.70
2019-01-06T03:31:08.716Z,16.15
2019-01-06T03:31:39.877Z,16.67
2019-01-06T03:32:11.359Z,17.07
2019-01-06T03:32:42.532Z,16.87
2019-01-06T03:33:13.683Z,15.65
2019-01-06T03:33:44.847Z,13.22
2019-01-06T03:34:16.017Z,15.78
2019-01-06T03:34:47.184Z,14.15
2019-01-06T03:35:18.335Z,15.28
2019-01-06T03:35:49.535Z,15.23
2019-01-06T03:36:20.686Z,15.30
2019-01-06T03:36:51.853Z,16.27
2019-01-06T03:37:23.005Z,16.90
2019-01-06T03:37:54.160Z,14.90
2019-01-06T03:38:25.319Z,13.62
2019-01-06T03:38:56.524Z,15.58
2019-01-06T03:39:27.755Z,14.07
2019-01-06T03:39:58.886Z,14.50
2019-01-06T03:40:30.040Z,16.32
2019-01-06T03:41:01.189Z,16.35
2019-01-06T03:41:32.332Z,16.65
2019-01-06T03:42:03.480Z,14.55
2019-01-06T03:42:34.630Z,13.88
2019-01-06T03:43:05.822Z,16.62
2019-01-06T03:43:36.982Z,15.65
2019-01-06T03:44:08.136Z,16.90
2019-01-06T03:44:39.292Z,15.10
2019-01-06T03:45:10.489Z,15.28
2019-01-06T03:45:41.605Z,16.07
2019-01-06T03:46:12.772Z,16.40
2019-01-06T03:46:43.905Z,15.90
2019-01-06T03:47:15.055Z,15.25
2019-01-06T03:47:46.207Z,14.10
2019-01-06T03:48:17.424Z,16.10
2019-01-06T03:48:48.576Z,14.47
2019-01-06T03:49:19.739Z,15.70
2019-01-06T03:49:50.891Z,15.08
2019-01-06T03:50:22.046Z,16.27
2019-01-06T03:50:53.195Z,14.60
2019-01-06T03:51:24.349Z,15.58
2019-01-06T03:51:55.508Z,15.40
2019-01-06T03:52:26.661Z,15.18
2019-01-06T03:52:57.825Z,13.53
2019-01-06T03:53:28.974Z,16.02
2019-01-06T03:54:00.127Z,17.12
2019-01-06T03:54:31.335Z,14.45
2019-01-06T03:55:02.489Z,15.55
2019-01-06T03:55:33.643Z,14.78
2019-01-06T03:56:04.836Z,16.35
2019-01-06T03:56:35.984Z,14.18
2019-01-06T03:57:07.170Z,16.77
2019-01-06T03:57:38.327Z,14.40
2019-01-06T03:58:09.499Z,16.95
2019-01-06T03:58:40.699Z,15.78
2019-01-06T03:59:11.867Z,14.95
2019-01-06T03:59:43.021Z,14.55
2019-01-06T04:00:14.182Z,16.25
2019-01-06T04:00:45.345Z,14.13
2019-01-06T04:01:16.509Z,15.78
2019-01-06T04:01:47.710Z,13.70
2019-01-06T04:02:18.876Z,14.70
2019-01-06T04:02:50.037Z,16.40
2019-01-06T04:03:21.211Z,16.30
2019-01-06T04:03:52.369Z,14.93
2019-01-06T04:04:23.526Z,12.33
2019-01-06T04:04:54.685Z,15.28
2019-01-06T04:05:25.860Z,12.37
2019-01-06T04:05:57.011Z,14.87
2019-01-06T04:06:28.207Z,16.82
2019-01-06T04:06:59.424Z,14.13
2019-01-06T04:07:31.612Z,13.80
2019-01-06T04:08:02.719Z,19.23
2019-01-06T04:08:33.930Z,14.78
2019-01-06T04:09:05.048Z,13.18
2019-01-06T04:09:36.218Z,14.20
2019-01-06T04:10:07.368Z,15.13
2019-01-06T04:10:38.526Z,14.33
2019-01-06T04:11:15.115Z,13.62
2019-01-06T04:11:42.649Z,13.75
2019-01-06T04:12:13.798Z,16.27
2019-01-06T04:12:44.993Z,13.98
2019-01-06T04:13:16.166Z,14.28
2019-01-06T04:13:47.329Z,13.72
2019-01-06T04:14:18.485Z,15.98
2019-01-06T04:14:49.653Z,14.98
2019-01-06T04:15:20.814Z,15.70
2019-01-06T04:15:51.976Z,15.93
2019-01-06T04:16:23.169Z,17.35
2019-01-06T04:16:54.327Z,13.45
2019-01-06T04:17:25.492Z,14.60
2019-01-06T04:17:56.651Z,13.72
2019-01-06T04:18:27.804Z,14.68
2019-01-06T04:18:58.947Z,14.93
2019-01-06T04:19:30.198Z,13.48
2019-01-06T04:20:01.350Z,13.55
2019-01-06T04:20:32.503Z,14.07
2019-01-06T04:21:03.729Z,13.60
2019-01-06T04:21:36.859Z,15.80
2019-01-06T04:22:07.986Z,13.15
2019-01-06T04:22:39.164Z,13.32
2019-01-06T04:23:10.305Z,14.05
2019-01-06T04:23:41.459Z,13.05
2019-01-06T04:24:12.626Z,15.20
2019-01-06T04:24:43.772Z,12.73
2019-01-06T04:25:14.943Z,14.53
2019-01-06T04:25:46.095Z,14.53
2019-01-06T04:26:17.133Z,14.80
2019-01-06T04:26:53.937Z,10.63
2019-01-06T04:27:25.920Z,12.90
2019-01-06T04:27:57.546Z,12.07
2019-01-06T04:28:39.597Z,14.25
2019-01-06T04:29:13.706Z,13.70
2019-01-06T04:29:44.717Z,13.00
2019-01-06T04:30:18.212Z,13.60
2019-01-06T04:30:49.442Z,13.13
2019-01-06T04:31:20.972Z,13.00
2019-01-06T04:32:45.499Z,13.43
2019-01-06T04:33:16.735Z,11.18
2019-01-06T04:33:49.939Z,12.65
2019-01-06T04:34:22.847Z,11.90
2019-01-06T04:34:54.376Z,12.13
2019-01-06T04:35:25.507Z,11.50
2019-01-06T04:35:58.810Z,10.75
2019-01-06T04:36:30.028Z,12.30
2019-01-06T04:37:01.767Z,11.97
2019-01-06T04:37:32.993Z,10.60
2019-01-06T04:38:04.848Z,11.55
2019-01-06T04:38:36.082Z,11.10
2019-01-06T04:39:07.632Z,12.63
2019-01-06T04:39:39.382Z,12.35
2019-01-06T04:40:13.417Z,13.83
2019-01-06T04:40:45.650Z,12.25
2019-01-06T04:41:17.878Z,10.38
2019-01-06T04:41:49.034Z,10.75
2019-01-06T04:42:20.209Z,11.00
2019-01-06T04:42:51.364Z,13.05
2019-01-06T04:43:22.585Z,13.98
2019-01-06T04:43:53.751Z,10.58
2019-01-06T04:44:24.909Z,11.10
2019-01-06T04:44:56.124Z,10.23
2019-01-06T04:45:27.272Z,12.15
2019-01-06T04:45:58.426Z,9.58
2019-01-06T04:46:29.573Z,11.25
2019-01-06T04:47:00.729Z,12.15
2019-01-06T04:47:31.882Z,11.38
2019-01-06T04:48:03.030Z,11.12
2019-01-06T04:48:34.170Z,11.05
2019-01-06T04:49:05.308Z,11.75
2019-01-06T04:49:36.481Z,12.88
2019-01-06T04:50:07.676Z,11.18
2019-01-06T04:50:38.835Z,11.50
2019-01-06T04:51:09.975Z,11.05
2019-01-06T04:51:41.127Z,10.98
2019-01-06T04:52:12.268Z,11.10
2019-01-06T04:52:43.448Z,11.55
2019-01-06T04:53:14.607Z,10.80
2019-01-06T04:53:45.766Z,10.60
2019-01-06T04:54:16.919Z,12.07
2019-01-06T04:54:48.075Z,11.78
2019-01-06T04:55:19.284Z,10.40
2019-01-06T04:55:50.433Z,10.70
2019-01-06T04:56:21.581Z,10.40
2019-01-06T04:56:52.731Z,9.88
2019-01-06T04:57:23.927Z,10.70
2019-01-06T04:57:55.078Z,10.45
2019-01-06T04:58:26.238Z,10.93
2019-01-06T04:58:57.401Z,9.08
2019-01-06T04:59:28.545Z,10.25
2019-01-06T04:59:59.731Z,10.43
2019-01-06T05:00:30.917Z,10.23
2019-01-06T05:01:02.065Z,9.58
2019-01-06T05:01:33.211Z,9.80
2019-01-06T05:02:04.363Z,9.25
2019-01-06T05:02:35.497Z,9.63
2019-01-06T05:03:06.640Z,8.65
2019-01-06T05:03:37.787Z,8.23
2019-01-06T05:04:08.951Z,9.20
2019-01-06T05:04:40.114Z,8.75
2019-01-06T05:05:11.320Z,9.18
2019-01-06T05:05:42.467Z,9.90
2019-01-06T05:06:13.630Z,8.73
2019-01-06T05:06:44.826Z,9.40
2019-01-06T05:07:15.974Z,9.98
2019-01-06T05:07:47.131Z,8.28
2019-01-06T05:08:18.304Z,7.87
2019-01-06T05:08:49.428Z,8.00
2019-01-06T05:09:20.587Z,8.13
2019-01-06T05:09:51.785Z,8.68
2019-01-06T05:10:22.936Z,7.28
2019-01-06T05:10:54.131Z,7.83
2019-01-06T05:11:25.270Z,8.45
2019-01-06T05:11:56.426Z,9.20
2019-01-06T05:12:27.572Z,7.75
2019-01-06T05:12:58.713Z,8.08
2019-01-06T05:13:29.868Z,6.10
2019-01-06T05:14:01.041Z,7.50
2019-01-06T05:14:32.240Z,7.17
2019-01-06T05:15:03.383Z,8.55
2019-01-06T05:15:34.529Z,7.28
2019-01-06T05:16:05.669Z,7.22
2019-01-06T05:16:36.809Z,6.40
2019-01-06T05:17:07.959Z,7.12
2019-01-06T05:17:39.159Z,6.67
2019-01-06T05:18:10.316Z,6.50
2019-01-06T05:18:41.473Z,7.85
2019-01-06T05:19:12.612Z,7.87
2019-01-06T05:19:43.812Z,6.53
2019-01-06T05:20:14.954Z,8.40
2019-01-06T05:20:46.099Z,6.75
2019-01-06T05:21:17.238Z,6.22
2019-01-06T05:21:48.398Z,6.67
2019-01-06T05:22:19.727Z,6.58
2019-01-06T05:22:50.877Z,6.33
2019-01-06T05:23:22.029Z,7.03
2019-01-06T05:23:53.171Z,6.95
2019-01-06T05:24:24.357Z,6.75
2019-01-06T05:24:55.506Z,6.35
2019-01-06T05:25:26.679Z,7.90
2019-01-06T05:25:57.820Z,6.50
2019-01-06T05:26:28.964Z,7.55
2019-01-06T05:27:00.114Z,6.40
2019-01-06T05:27:31.259Z,5.95
2019-01-06T05:28:02.443Z,6.78
2019-01-06T05:28:33.587Z,6.20
2019-01-06T05:29:04.801Z,6.62
2019-01-06T05:29:35.961Z,6.95
2019-01-06T05:30:07.159Z,6.53
2019-01-06T05:30:38.296Z,7.30
2019-01-06T05:31:09.434Z,7.15
2019-01-06T05:31:40.638Z,5.83
2019-01-06T05:32:11.771Z,5.70
2019-01-06T05:32:42.907Z,6.50
2019-01-06T05:33:14.078Z,5.28
2019-01-06T05:33:45.269Z,5.78
2019-01-06T05:34:16.409Z,6.72
2019-01-06T05:34:47.617Z,6.92
2019-01-06T05:35:18.724Z,6.15
2019-01-06T05:35:49.964Z,6.17
2019-01-06T05:36:21.091Z,5.67
2019-01-06T05:36:52.253Z,5.80
2019-01-06T05:37:23.408Z,6.30
2019-01-06T05:37:54.552Z,5.72
2019-01-06T05:38:25.697Z,5.08
2019-01-06T05:38:56.838Z,5.87
2019-01-06T05:39:27.988Z,6.40
2019-01-06T05:39:59.133Z,5.15
2019-01-06T05:40:30.340Z,7.15
2019-01-06T05:41:01.498Z,5.55
2019-01-06T05:41:32.639Z,4.80
2019-01-06T05:42:03.789Z,4.97
2019-01-06T05:42:34.933Z,4.85
2019-01-06T05:43:06.084Z,5.92
2019-01-06T05:43:37.302Z,6.45
2019-01-06T05:44:08.455Z,5.10
2019-01-06T05:44:39.602Z,5.17
2019-01-06T05:45:10.741Z,5.92
2019-01-06T05:45:41.893Z,5.08
2019-01-06T05:46:13.075Z,5.50
2019-01-06T05:46:44.219Z,5.00
2019-01-06T05:47:15.358Z,6.10
2019-01-06T05:47:46.516Z,7.67
2019-01-06T05:48:17.676Z,5.58
2019-01-06T05:48:48.860Z,6.35
2019-01-06T05:49:20.043Z,6.33
2019-01-06T05:49:51.191Z,5.60
2019-01-06T05:50:22.374Z,6.40
2019-01-06T05:50:53.498Z,5.30
2019-01-06T05:51:24.645Z,5.50
2019-01-06T05:51:55.788Z,5.85
2019-01-06T05:52:26.941Z,6.28
2019-01-06T05:52:58.430Z,6.25
2019-01-06T05:53:29.594Z,5.55
2019-01-06T05:54:00.827Z,7.05
2019-01-06T05:54:32.027Z,6.22
2019-01-06T05:55:04.283Z,5.92
2019-01-06T05:55:36.563Z,6.42
2019-01-06T05:56:07.754Z,5.78
2019-01-06T05:56:39.302Z,6.35
2019-01-06T05:57:11.467Z,5.95
2019-01-06T05:57:42.628Z,6.30
2019-01-06T05:58:17.401Z,6.90
2019-01-06T05:58:48.494Z,6.30
2019-01-06T05:59:19.701Z,6.87
2019-01-06T05:59:53.472Z,5.70
2019-01-06T06:00:24.990Z,7.20
2019-01-06T06:00:58.187Z,6.95
2019-01-06T06:01:31.346Z,5.30
2019-01-06T06:02:02.597Z,5.58
2019-01-06T06:02:33.776Z,7.00
2019-01-06T06:03:05.895Z,5.15
2019-01-06T06:03:38.553Z,4.80
2019-01-06T06:04:20.325Z,4.78
2019-01-06T06:04:51.515Z,4.60
2019-01-06T06:05:25.034Z,5.37
2019-01-06T06:05:56.196Z,4.28
2019-01-06T06:06:27.819Z,6.45
2019-01-06T06:06:58.971Z,5.10
2019-01-06T06:07:31.194Z,4.65
2019-01-06T06:08:02.191Z,4.87
2019-01-06T06:08:33.431Z,5.05
2019-01-06T06:09:07.922Z,5.15
2019-01-06T06:09:39.147Z,5.83
2019-01-06T06:10:11.348Z,6.58
2019-01-06T06:10:43.937Z,4.80
2019-01-06T06:11:27.104Z,5.12
2019-01-06T06:11:59.112Z,5.97
2019-01-06T06:12:31.311Z,6.22
2019-01-06T06:13:02.593Z,5.53
2019-01-06T06:13:35.081Z,7.12
2019-01-06T06:14:10.152Z,6.25
2019-01-06T06:14:41.214Z,5.28
2019-01-06T06:15:12.414Z,4.45
2019-01-06T06:15:43.551Z,5.30
2019-01-06T06:16:14.706Z,5.30
2019-01-06T06:16:45.851Z,5.85
2019-01-06T06:17:16.989Z,4.87
2019-01-06T06:17:48.133Z,5.37
2019-01-06T06:18:19.274Z,5.45
2019-01-06T06:18:50.474Z,6.67
2019-01-06T06:19:21.704Z,5.53
2019-01-06T06:19:52.860Z,7.53
2019-01-06T06:20:24.006Z,6.15
2019-01-06T06:20:55.152Z,5.58
2019-01-06T06:21:26.304Z,7.35
2019-01-06T06:21:57.456Z,5.28
2019-01-06T06:22:28.755Z,6.87
2019-01-06T06:22:59.979Z,7.10
2019-01-06T06:23:31.153Z,6.40
2019-01-06T06:24:02.405Z,6.12
2019-01-06T06:24:33.505Z,5.83
2019-01-06T06:25:04.660Z,6.40
2019-01-06T06:25:35.812Z,6.70
2019-01-06T06:26:06.973Z,6.97
2019-01-06T06:26:38.115Z,7.10
2019-01-06T06:27:09.271Z,6.03
2019-01-06T06:27:40.421Z,6.35
2019-01-06T06:28:11.563Z,6.12
2019-01-06T06:28:42.698Z,8.03
2019-01-06T06:29:13.893Z,6.78
2019-01-06T06:29:45.047Z,6.10
2019-01-06T06:30:16.223Z,7.62
2019-01-06T06:30:47.346Z,6.65
2019-01-06T06:31:18.471Z,6.78
2019-01-06T06:31:49.617Z,8.78
2019-01-06T06:32:20.772Z,6.17
2019-01-06T06:32:51.944Z,7.25
2019-01-06T06:33:23.041Z,6.55
2019-01-06T06:33:55.502Z,7.10
2019-01-06T06:34:26.766Z,7.62
2019-01-06T06:34:59.076Z,5.72
2019-01-06T06:35:30.357Z,6.20
2019-01-06T06:36:02.225Z,6.03
2019-01-06T06:36:33.517Z,6.58
2019-01-06T06:37:04.824Z,6.75
2019-01-06T06:37:35.979Z,6.17
2019-01-06T06:38:08.313Z,6.53
2019-01-06T06:38:40.627Z,5.90
2019-01-06T06:39:12.156Z,6.50
2019-01-06T06:39:44.437Z,6.35
2019-01-06T06:40:16.621Z,6.45
2019-01-06T06:40:48.836Z,7.03
2019-01-06T06:41:21.123Z,6.78
2019-01-06T06:41:52.328Z,7.72
2019-01-06T06:42:23.516Z,6.20
2019-01-06T06:42:54.693Z,6.87
2019-01-06T06:43:25.857Z,7.95
2019-01-06T06:43:57.025Z,8.45
2019-01-06T06:44:28.225Z,7.00
2019-01-06T06:44:59.374Z,7.10
2019-01-06T06:45:30.543Z,7.22
2019-01-06T06:46:01.681Z,7.92
2019-01-06T06:46:32.830Z,7.35
2019-01-06T06:47:03.983Z,7.37
2019-01-06T06:47:35.132Z,7.25
2019-01-06T06:48:06.271Z,7.80
2019-01-06T06:48:37.454Z,7.42